createdAt,value
2023-04-24T00:01:11.458Z,47.15
2023-04-24T00:03:40.146Z,47.21
2023-04-24T00:06:09.269Z,47.05
2023-04-24T00:08:36.984Z,46.89
2023-04-24T00:11:04.283Z,46.95
2023-04-24T00:13:31.590Z,46.82
2023-04-24T00:15:58.530Z,46.96
2023-04-24T00:18:25.625Z,47.00
2023-04-24T00:20:52.582Z,47.44
2023-04-24T00:23:19.506Z,47.64
2023-04-24T00:25:46.429Z,47.62
2023-04-24T00:28:13.347Z,47.06
2023-04-24T00:30:41.591Z,47.64
2023-04-24T00:33:08.631Z,47.27
2023-04-24T00:35:35.762Z,48.58
2023-04-24T00:38:02.651Z,47.71
2023-04-24T00:40:30.046Z,47.16
2023-04-24T00:42:57.533Z,46.96
2023-04-24T00:45:24.643Z,46.72
2023-04-24T00:47:53.322Z,46.78
2023-04-24T00:50:22.500Z,46.65
2023-04-24T00:52:50.163Z,46.26
2023-04-24T00:55:18.119Z,46.26
2023-04-24T00:57:58.645Z,46.02
2023-04-24T01:00:26.696Z,45.73
2023-04-24T01:02:56.353Z,45.67
2023-04-24T01:05:34.527Z,45.58
2023-04-24T01:08:04.514Z,45.23
2023-04-24T01:10:40.137Z,45.58
2023-04-24T01:13:21.497Z,45.21
2023-04-24T01:15:52.324Z,44.99
2023-04-24T01:18:19.609Z,45.00
2023-04-24T01:20:46.639Z,44.74
2023-04-24T01:23:17.447Z,44.47
2023-04-24T01:25:47.795Z,44.46
2023-04-24T01:28:15.377Z,44.56
2023-04-24T01:30:42.324Z,44.48
2023-04-24T01:33:09.248Z,44.54
2023-04-24T01:35:37.238Z,44.58
2023-04-24T01:38:04.784Z,44.63
2023-04-24T01:40:31.872Z,44.59
2023-04-24T01:42:59.321Z,44.59
2023-04-24T01:45:26.334Z,44.66
2023-04-24T01:47:53.389Z,44.53
2023-04-24T01:50:20.386Z,44.55
2023-04-24T01:52:47.345Z,44.45
2023-04-24T01:55:14.222Z,44.49
2023-04-24T01:57:41.094Z,44.62
2023-04-24T02:00:08.802Z,44.62
2023-04-24T02:02:43.126Z,44.70
2023-04-24T02:05:12.121Z,44.75
2023-04-24T02:07:39.006Z,44.79
2023-04-24T02:10:06.418Z,44.86
2023-04-24T02:12:33.582Z,44.95
2023-04-24T02:15:00.493Z,45.19
2023-04-24T02:17:27.543Z,45.12
2023-04-24T02:19:54.627Z,45.22
2023-04-24T02:22:21.459Z,45.19
2023-04-24T02:24:48.297Z,45.10
2023-04-24T02:27:16.443Z,45.23
2023-04-24T02:29:43.645Z,45.24
2023-04-24T02:32:13.240Z,45.18
2023-04-24T02:34:40.859Z,45.18
2023-04-24T02:37:07.770Z,45.39
2023-04-24T02:39:34.718Z,46.98
2023-04-24T02:42:02.914Z,48.71
2023-04-24T02:44:31.011Z,49.45
2023-04-24T02:46:57.958Z,50.40
2023-04-24T02:49:24.901Z,50.78
2023-04-24T02:51:51.867Z,51.24
2023-04-24T02:54:19.052Z,51.40
2023-04-24T02:56:46.094Z,51.94
2023-04-24T02:59:12.998Z,52.50
2023-04-24T03:01:40.022Z,53.01
2023-04-24T03:04:07.483Z,53.45
2023-04-24T03:06:36.451Z,53.97
2023-04-24T03:09:04.742Z,54.54
2023-04-24T03:11:32.443Z,54.76
2023-04-24T03:13:59.480Z,55.24
2023-04-24T03:16:26.525Z,55.83
2023-04-24T03:18:55.996Z,56.16
2023-04-24T03:21:23.980Z,56.41
2023-04-24T03:23:51.035Z,56.69
2023-04-24T03:26:18.561Z,57.08
2023-04-24T03:28:55.908Z,57.26
2023-04-24T03:31:23.345Z,57.35
2023-04-24T03:33:50.625Z,57.49
2023-04-24T03:36:18.440Z,57.54
2023-04-24T03:38:45.391Z,57.81
2023-04-24T03:41:27.998Z,58.05
2023-04-24T03:44:10.292Z,58.08
2023-04-24T03:46:37.616Z,58.07
2023-04-24T03:49:04.545Z,58.18
2023-04-24T03:51:34.488Z,58.29
2023-04-24T03:54:12.452Z,58.37
2023-04-24T03:56:40.372Z,58.64
2023-04-24T03:59:08.168Z,58.40
2023-04-24T04:01:38.360Z,58.35
2023-04-24T04:04:17.122Z,58.50
2023-04-24T04:06:47.991Z,58.33
2023-04-24T04:09:19.203Z,58.38
2023-04-24T04:11:46.385Z,58.32
2023-04-24T04:14:13.420Z,58.14
2023-04-24T04:16:41.398Z,57.98
2023-04-24T04:19:08.775Z,58.27
2023-04-24T04:21:35.805Z,58.11
2023-04-24T04:24:11.520Z,58.15
2023-04-24T04:26:47.438Z,57.92
2023-04-24T04:29:21.339Z,57.63
2023-04-24T04:31:48.602Z,57.11
2023-04-24T04:34:15.796Z,56.88
2023-04-24T04:36:44.097Z,56.91
2023-04-24T04:39:32.458Z,56.95
2023-04-24T04:42:02.259Z,56.74
2023-04-24T04:44:47.411Z,56.28
2023-04-24T04:47:20.793Z,55.96
2023-04-24T04:49:47.784Z,55.80
2023-04-24T04:52:20.385Z,55.47
2023-04-24T04:55:54.986Z,55.21
2023-04-24T04:58:26.692Z,54.48
2023-04-24T05:00:56.223Z,54.00
2023-04-24T05:03:27.777Z,53.56
2023-04-24T05:06:03.572Z,52.15
2023-04-24T05:08:32.386Z,51.77
2023-04-24T05:10:59.325Z,50.90
2023-04-24T05:13:39.369Z,50.66
2023-04-24T05:16:15.534Z,50.42
2023-04-24T05:18:42.818Z,50.45
2023-04-24T05:21:11.204Z,50.85
2023-04-24T05:23:39.629Z,50.88
2023-04-24T05:26:07.837Z,50.90
2023-04-24T05:28:37.843Z,50.94
2023-04-24T05:31:08.563Z,51.12
2023-04-24T05:33:36.140Z,51.38
2023-04-24T05:36:03.608Z,51.39
2023-04-24T05:38:30.589Z,51.64
2023-04-24T05:40:57.477Z,51.58
2023-04-24T05:43:24.575Z,51.56
2023-04-24T05:45:51.463Z,51.86
2023-04-24T05:48:18.692Z,51.80
2023-04-24T05:50:45.741Z,51.79
2023-04-24T05:53:12.832Z,51.65
2023-04-24T05:55:39.828Z,51.62
2023-04-24T05:58:07.220Z,51.55
2023-04-24T06:00:34.595Z,51.36
2023-04-24T06:03:05.012Z,50.97
2023-04-24T06:05:32.692Z,50.59
2023-04-24T06:07:59.740Z,50.12
2023-04-24T06:10:30.575Z,49.50
2023-04-24T06:13:01.460Z,48.09
2023-04-24T06:15:31.683Z,46.96
2023-04-24T06:18:03.913Z,46.37
2023-04-24T06:20:30.884Z,45.61
2023-04-24T06:22:57.765Z,44.60
2023-04-24T06:25:30.615Z,43.95
2023-04-24T06:27:57.984Z,43.26
2023-04-24T06:30:24.805Z,42.34
2023-04-24T06:32:51.994Z,41.74
2023-04-24T06:35:18.876Z,41.16
2023-04-24T06:37:45.710Z,41.25
2023-04-24T06:40:12.681Z,41.32
2023-04-24T06:42:39.643Z,41.02
2023-04-24T06:45:09.142Z,40.75
2023-04-24T06:47:36.022Z,40.80
2023-04-24T06:50:02.894Z,40.75
2023-04-24T06:52:29.874Z,40.46
2023-04-24T06:55:02.559Z,39.78
2023-04-24T06:57:30.101Z,38.71
2023-04-24T06:59:57.112Z,37.29
2023-04-24T07:02:24.630Z,36.40
2023-04-24T07:04:53.937Z,36.45
2023-04-24T07:07:27.847Z,36.46
2023-04-24T07:09:57.671Z,36.32
2023-04-24T07:12:32.272Z,36.70
2023-04-24T07:17:45.647Z,36.38
2023-04-24T07:20:21.080Z,36.22
2023-04-24T07:22:50.579Z,36.11
2023-04-24T07:25:19.146Z,35.60
2023-04-24T07:27:46.596Z,34.84
2023-04-24T07:30:13.609Z,35.24
2023-04-24T07:32:40.678Z,35.36
2023-04-24T07:35:08.754Z,35.44
2023-04-24T07:37:35.645Z,35.34
2023-04-24T07:40:02.703Z,35.32
2023-04-24T07:42:31.617Z,35.39
2023-04-24T07:44:58.618Z,35.29
2023-04-24T07:47:25.949Z,35.54
2023-04-24T07:49:53.031Z,35.91
2023-04-24T07:52:19.942Z,36.04
2023-04-24T07:54:46.837Z,36.11
2023-04-24T07:57:15.161Z,35.92
2023-04-24T07:59:42.474Z,35.66
2023-04-24T08:02:11.127Z,35.81
2023-04-24T08:05:56.702Z,35.52
2023-04-24T08:08:24.043Z,35.33
2023-04-24T08:10:51.233Z,34.84
2023-04-24T08:13:19.276Z,34.53
2023-04-24T08:15:46.493Z,34.68
2023-04-24T08:18:15.033Z,34.92
2023-04-24T08:20:42.057Z,34.81
2023-04-24T08:23:09.219Z,35.00
2023-04-24T08:25:36.554Z,34.35
2023-04-24T08:28:05.075Z,33.94
2023-04-24T08:30:32.077Z,34.25
2023-04-24T08:32:59.207Z,34.15
2023-04-24T08:35:26.407Z,34.04
2023-04-24T08:37:54.863Z,34.15
2023-04-24T08:40:24.244Z,33.91
2023-04-24T08:42:51.315Z,33.92
2023-04-24T08:45:18.299Z,33.42
2023-04-24T08:47:46.405Z,33.32
2023-04-24T08:50:13.920Z,32.55
2023-04-24T08:52:40.820Z,32.30
2023-04-24T08:55:08.082Z,32.74
2023-04-24T08:57:39.312Z,32.29
2023-04-24T09:00:11.866Z,31.81
2023-04-24T09:02:44.829Z,31.90
2023-04-24T09:05:12.415Z,31.66
2023-04-24T09:07:39.716Z,30.86
2023-04-24T09:10:07.245Z,30.94
2023-04-24T09:12:35.658Z,31.22
2023-04-24T09:15:06.334Z,30.67
2023-04-24T09:17:33.568Z,30.70
2023-04-24T09:20:03.646Z,30.90
2023-04-24T09:22:32.123Z,31.13
2023-04-24T09:25:08.189Z,31.32
2023-04-24T09:27:37.682Z,31.43
2023-04-24T09:30:05.176Z,31.66
2023-04-24T09:32:34.077Z,31.51
2023-04-24T09:35:09.328Z,31.06
2023-04-24T09:37:48.374Z,30.67
2023-04-24T09:40:20.007Z,29.40
2023-04-24T09:42:53.461Z,27.24
2023-04-24T09:45:21.448Z,27.27
2023-04-24T09:47:48.619Z,27.23
2023-04-24T09:50:22.506Z,26.72
2023-04-24T09:53:01.175Z,25.82
2023-04-24T09:55:29.192Z,25.05
2023-04-24T09:58:01.290Z,24.55
2023-04-24T10:00:29.765Z,24.96
2023-04-24T10:03:03.518Z,24.59
2023-04-24T10:05:32.387Z,24.92
2023-04-24T10:08:05.387Z,24.49
2023-04-24T10:10:33.229Z,24.25
2023-04-24T10:13:02.651Z,24.31
2023-04-24T10:15:29.619Z,25.00
2023-04-24T10:17:56.527Z,25.55
2023-04-24T10:20:25.038Z,25.76
2023-04-24T10:22:53.358Z,26.12
2023-04-24T10:25:24.784Z,26.52
2023-04-24T10:27:52.513Z,27.05
2023-04-24T10:30:20.352Z,27.41
2023-04-24T10:32:47.300Z,27.68
2023-04-24T10:35:14.904Z,27.77
2023-04-24T10:37:52.098Z,27.53
2023-04-24T10:40:22.572Z,27.08
2023-04-24T10:42:50.240Z,27.47
2023-04-24T10:45:19.096Z,27.42
2023-04-24T10:48:04.348Z,27.17
2023-04-24T10:50:52.842Z,27.01
2023-04-24T10:53:24.488Z,27.43
2023-04-24T10:55:52.379Z,27.37
2023-04-24T10:58:26.451Z,27.13
2023-04-24T11:00:58.721Z,26.93
2023-04-24T11:03:28.966Z,26.60
2023-04-24T11:06:06.097Z,26.44
2023-04-24T11:08:46.408Z,26.24
2023-04-24T11:11:17.939Z,25.73
2023-04-24T11:14:05.660Z,26.00
2023-04-24T11:16:36.715Z,25.85
2023-04-24T11:19:12.363Z,25.73
2023-04-24T11:21:44.287Z,25.58
2023-04-24T11:24:32.674Z,25.38
2023-04-24T11:27:05.720Z,23.92
2023-04-24T11:29:54.285Z,23.45
2023-04-24T11:32:37.833Z,23.99
2023-04-24T11:35:38.902Z,24.09
2023-04-24T11:40:37.293Z,25.07
2023-04-24T11:43:07.544Z,25.55
2023-04-24T11:45:35.115Z,26.01
2023-04-24T11:48:03.757Z,26.63
2023-04-24T11:50:31.688Z,27.12
2023-04-24T11:52:59.440Z,27.85
2023-04-24T11:55:28.959Z,28.37
2023-04-24T11:58:00.617Z,29.75
2023-04-24T12:00:37.782Z,31.16
2023-04-24T12:03:08.512Z,32.55
2023-04-24T12:05:36.260Z,33.85
2023-04-24T12:08:03.516Z,34.88
2023-04-24T12:10:33.547Z,35.73
2023-04-24T12:13:01.494Z,36.54
2023-04-24T12:15:28.780Z,37.45
2023-04-24T12:17:56.563Z,37.90
2023-04-24T12:20:27.743Z,38.42
2023-04-24T12:22:56.122Z,38.56
2023-04-24T12:25:24.670Z,38.68
2023-04-24T12:28:15.196Z,38.81
2023-04-24T12:30:45.482Z,38.96
2023-04-24T12:33:12.631Z,38.93
2023-04-24T12:35:41.324Z,38.70
2023-04-24T12:38:09.641Z,39.01
2023-04-24T12:40:36.881Z,39.12
2023-04-24T12:43:16.864Z,38.73
2023-04-24T12:45:55.233Z,38.36
2023-04-24T12:48:29.099Z,38.71
2023-04-24T12:51:01.759Z,38.66
2023-04-24T12:53:31.114Z,38.58
2023-04-24T12:55:59.352Z,38.84
2023-04-24T12:58:26.374Z,39.12
2023-04-24T13:00:53.367Z,39.12
2023-04-24T13:03:21.017Z,40.94
2023-04-24T13:05:48.279Z,42.53
2023-04-24T13:08:15.361Z,42.91
2023-04-24T13:10:42.540Z,43.04
2023-04-24T13:13:12.028Z,42.81
2023-04-24T13:15:39.086Z,42.54
2023-04-24T13:18:06.129Z,41.89
2023-04-24T13:20:33.355Z,41.63
2023-04-24T13:23:01.156Z,41.93
2023-04-24T13:25:29.422Z,40.60
2023-04-24T13:27:56.310Z,40.07
2023-04-24T13:30:23.312Z,39.07
2023-04-24T13:32:50.414Z,38.55
2023-04-24T13:35:17.451Z,38.37
2023-04-24T13:37:44.375Z,37.69
2023-04-24T13:40:11.765Z,37.18
2023-04-24T13:42:39.249Z,36.72
2023-04-24T13:45:21.338Z,36.47
2023-04-24T13:47:52.913Z,36.34
2023-04-24T13:50:21.407Z,36.44
2023-04-24T13:52:48.312Z,36.66
2023-04-24T13:55:15.435Z,36.30
2023-04-24T13:57:42.336Z,36.03
2023-04-24T14:00:11.741Z,35.92
2023-04-24T14:02:39.025Z,35.96
2023-04-24T14:05:07.813Z,36.06
2023-04-24T14:07:34.831Z,36.20
2023-04-24T14:10:01.719Z,36.23
2023-04-24T14:12:28.732Z,36.38
2023-04-24T14:14:55.766Z,36.60
2023-04-24T14:17:23.462Z,37.02
2023-04-24T14:19:51.562Z,37.01
2023-04-24T14:22:18.575Z,36.97
2023-04-24T14:24:45.484Z,36.80
2023-04-24T14:27:12.304Z,38.07
2023-04-24T14:29:39.187Z,39.28
2023-04-24T14:32:06.378Z,40.13
2023-04-24T14:34:33.386Z,40.57
2023-04-24T14:37:01.360Z,40.63
2023-04-24T14:39:29.834Z,41.19
2023-04-24T14:41:56.776Z,41.79
2023-04-24T14:44:23.767Z,42.00
2023-04-24T14:46:51.049Z,42.04
2023-04-24T14:49:18.116Z,41.96
2023-04-24T14:51:45.080Z,42.04
2023-04-24T14:54:11.910Z,41.98
2023-04-24T14:56:41.870Z,42.19
2023-04-24T14:59:08.917Z,42.08
2023-04-24T15:01:36.042Z,42.08
2023-04-24T15:04:04.679Z,42.12
2023-04-24T15:06:32.959Z,42.13
2023-04-24T15:09:01.113Z,42.34
2023-04-24T15:11:29.292Z,42.52
2023-04-24T15:13:57.211Z,42.54
2023-04-24T15:16:25.616Z,42.57
2023-04-24T15:18:53.632Z,42.56
2023-04-24T15:21:20.712Z,42.82
2023-04-24T15:23:47.843Z,42.76
2023-04-24T15:26:15.286Z,42.37
2023-04-24T15:28:42.271Z,41.71
2023-04-24T15:31:09.185Z,41.87
2023-04-24T15:33:36.330Z,41.84
2023-04-24T15:36:03.221Z,41.96
2023-04-24T15:38:30.340Z,42.37
2023-04-24T15:40:57.309Z,42.43
2023-04-24T15:43:24.338Z,42.37
2023-04-24T15:45:51.363Z,41.87
2023-04-24T15:48:18.395Z,41.23
2023-04-24T15:50:45.634Z,40.91
2023-04-24T15:53:12.572Z,41.03
2023-04-24T15:55:39.566Z,40.97
2023-04-24T15:58:06.439Z,41.04
2023-04-24T16:00:35.209Z,40.61
2023-04-24T16:03:02.431Z,40.68
2023-04-24T16:05:29.477Z,40.67
2023-04-24T16:07:57.052Z,40.61
2023-04-24T16:10:24.038Z,40.78
2023-04-24T16:12:53.400Z,40.82
2023-04-24T16:15:23.622Z,40.78
2023-04-24T16:17:50.762Z,41.03
2023-04-24T16:20:17.726Z,40.95
2023-04-24T16:22:45.047Z,40.90
2023-04-24T16:25:12.119Z,41.00
2023-04-24T16:27:39.741Z,41.11
2023-04-24T16:30:09.673Z,41.09
2023-04-24T16:32:36.898Z,41.16
2023-04-24T16:35:04.066Z,41.22
2023-04-24T16:37:31.195Z,41.10
2023-04-24T16:39:58.124Z,41.32
2023-04-24T16:42:25.018Z,41.27
2023-04-24T16:44:52.074Z,41.28
2023-04-24T16:47:19.291Z,41.59
2023-04-24T16:49:46.348Z,41.29
2023-04-24T16:52:13.476Z,41.31
2023-04-24T16:54:40.686Z,41.45
2023-04-24T16:57:08.027Z,41.65
2023-04-24T16:59:35.174Z,41.60
2023-04-24T17:02:02.124Z,41.84
2023-04-24T17:04:29.183Z,41.87
2023-04-24T17:06:56.254Z,41.90
2023-04-24T17:09:23.151Z,42.07
2023-04-24T17:13:34.000Z,42.23
2023-04-24T17:16:08.384Z,42.45
2023-04-24T17:18:35.413Z,42.58
2023-04-24T17:21:02.265Z,42.79
2023-04-24T17:23:29.248Z,42.74
2023-04-24T17:25:56.680Z,43.00
2023-04-24T17:28:31.104Z,43.11
2023-04-24T17:30:58.633Z,43.26
2023-04-24T17:33:26.622Z,43.26
2023-04-24T17:35:54.170Z,43.43
2023-04-24T17:38:21.225Z,43.34
2023-04-24T17:40:48.095Z,43.54
2023-04-24T17:43:18.418Z,43.54
2023-04-24T17:45:46.422Z,43.48
2023-04-24T17:48:14.024Z,43.61
2023-04-24T17:50:41.324Z,43.46
2023-04-24T17:53:08.438Z,43.52
2023-04-24T17:55:35.382Z,43.60
2023-04-24T17:58:03.158Z,43.64
2023-04-24T18:00:31.265Z,43.68
2023-04-24T18:03:01.360Z,43.73
2023-04-24T18:05:33.221Z,43.65
2023-04-24T18:08:00.390Z,43.67
2023-04-24T18:10:28.504Z,43.75
2023-04-24T18:12:55.449Z,43.65
2023-04-24T18:15:22.401Z,43.81
2023-04-24T18:17:49.619Z,43.88
2023-04-24T18:20:17.356Z,43.95
2023-04-24T18:22:44.505Z,44.05
2023-04-24T18:25:11.666Z,43.98
2023-04-24T18:27:39.576Z,44.30
2023-04-24T18:30:08.171Z,44.24
2023-04-24T18:32:35.668Z,44.18
2023-04-24T18:35:03.503Z,44.27
2023-04-24T18:37:33.060Z,44.31
2023-04-24T18:40:00.126Z,44.51
2023-04-24T18:42:27.382Z,44.56
2023-04-24T18:44:54.396Z,44.78
2023-04-24T18:47:21.501Z,44.89
2023-04-24T18:49:48.693Z,45.22
2023-04-24T18:52:15.722Z,45.53
2023-04-24T18:54:42.714Z,45.73
2023-04-24T18:57:09.615Z,45.92
2023-04-24T18:59:37.479Z,46.13
2023-04-24T19:02:04.428Z,46.14
2023-04-24T19:04:31.449Z,46.31
2023-04-24T19:06:58.359Z,46.30
2023-04-24T19:09:25.280Z,46.51
2023-04-24T19:11:52.145Z,46.60
2023-04-24T19:14:19.643Z,47.02
2023-04-24T19:16:46.600Z,47.05
2023-04-24T19:19:13.499Z,47.26
2023-04-24T19:21:40.724Z,47.50
2023-04-24T19:24:09.666Z,47.62
2023-04-24T19:26:36.940Z,47.80
2023-04-24T19:29:03.954Z,47.86
2023-04-24T19:31:30.958Z,48.15
2023-04-24T19:33:57.962Z,48.06
2023-04-24T19:36:24.898Z,48.45
2023-04-24T19:38:52.145Z,48.94
2023-04-24T19:41:19.040Z,49.31
2023-04-24T19:43:47.473Z,49.12
2023-04-24T19:46:14.443Z,49.38
2023-04-24T19:48:41.574Z,49.41
2023-04-24T19:51:08.517Z,49.55
2023-04-24T19:53:35.476Z,49.48
2023-04-24T19:56:02.369Z,49.65
2023-04-24T19:58:31.160Z,49.64
2023-04-24T20:00:58.249Z,49.50
2023-04-24T20:03:32.938Z,49.58
2023-04-24T20:06:01.275Z,49.50
2023-04-24T20:08:28.288Z,49.91
2023-04-24T20:10:59.041Z,49.89
2023-04-24T20:13:28.209Z,49.98
2023-04-24T20:15:55.370Z,49.99
2023-04-24T20:18:22.547Z,50.13
2023-04-24T20:20:49.723Z,50.02
2023-04-24T20:23:16.703Z,49.98
2023-04-24T20:25:43.570Z,50.09
2023-04-24T20:28:10.734Z,50.12
2023-04-24T20:30:38.253Z,50.15
2023-04-24T20:33:05.302Z,50.27
2023-04-24T20:35:32.365Z,50.50
2023-04-24T20:37:59.714Z,50.58
2023-04-24T20:40:30.476Z,50.70
2023-04-24T20:42:59.136Z,51.02
2023-04-24T20:45:26.420Z,51.36
2023-04-24T20:47:56.040Z,51.46
2023-04-24T20:50:23.412Z,51.63
2023-04-24T20:52:50.634Z,51.83
2023-04-24T20:55:17.790Z,51.79
2023-04-24T20:57:44.805Z,51.95
2023-04-24T21:00:13.174Z,52.15
2023-04-24T21:02:40.403Z,52.23
2023-04-24T21:05:08.328Z,52.52
2023-04-24T21:07:36.185Z,52.67
2023-04-24T21:10:03.343Z,52.90
2023-04-24T21:12:30.249Z,53.26
2023-04-24T21:14:57.278Z,53.61
2023-04-24T21:17:24.375Z,53.64
2023-04-24T21:19:51.381Z,53.70
2023-04-24T21:22:18.426Z,54.02
2023-04-24T21:24:46.346Z,54.39
2023-04-24T21:27:13.304Z,54.79
2023-04-24T21:29:40.517Z,55.17
2023-04-24T21:32:07.650Z,55.11
2023-04-24T21:34:34.668Z,55.59
2023-04-24T21:37:01.788Z,55.84
2023-04-24T21:39:28.786Z,56.25
2023-04-24T21:41:56.171Z,56.04
2023-04-24T21:44:23.229Z,56.35
2023-04-24T21:46:50.363Z,56.34
2023-04-24T21:49:17.564Z,56.08
2023-04-24T21:51:44.523Z,56.40
2023-04-24T21:54:11.500Z,56.40
2023-04-24T21:56:39.326Z,56.44
2023-04-24T21:59:06.234Z,56.42
2023-04-24T22:01:33.908Z,56.89
2023-04-24T22:04:03.310Z,56.86
2023-04-24T22:06:32.272Z,56.99
2023-04-24T22:08:59.446Z,56.94
2023-04-24T22:11:27.409Z,56.98
2023-04-24T22:13:55.002Z,57.09
2023-04-24T22:16:23.962Z,57.17
2023-04-24T22:18:53.812Z,57.28
2023-04-24T22:21:21.685Z,57.25
2023-04-24T22:23:49.997Z,57.51
2023-04-24T22:26:17.626Z,57.44
2023-04-24T22:28:46.085Z,57.51
2023-04-24T22:31:14.946Z,57.55
2023-04-24T22:33:42.641Z,57.68
2023-04-24T22:36:09.612Z,57.73
2023-04-24T22:38:36.470Z,57.86
2023-04-24T22:41:03.456Z,58.04
2023-04-24T22:43:31.614Z,58.08
2023-04-24T22:45:58.600Z,58.26
2023-04-24T22:48:26.292Z,58.22
2023-04-24T22:50:53.426Z,58.15
2023-04-24T22:53:20.389Z,58.21
2023-04-24T22:55:47.234Z,58.27
2023-04-24T22:58:14.093Z,58.25
2023-04-24T23:00:41.016Z,58.38
2023-04-24T23:03:08.024Z,58.56
2023-04-24T23:05:35.147Z,58.63
2023-04-24T23:08:01.997Z,58.86
2023-04-24T23:10:28.924Z,58.72
2023-04-24T23:12:56.184Z,58.58
2023-04-24T23:15:23.245Z,58.63
2023-04-24T23:17:50.318Z,59.09
2023-04-24T23:20:17.313Z,59.06
2023-04-24T23:22:44.278Z,59.19
2023-04-24T23:25:11.348Z,59.38
2023-04-24T23:27:38.238Z,59.50
2023-04-24T23:30:06.849Z,59.60
2023-04-24T23:32:34.029Z,59.42
2023-04-24T23:35:00.990Z,59.72
2023-04-24T23:37:28.078Z,59.66
2023-04-24T23:39:55.138Z,59.60
2023-04-24T23:42:22.100Z,59.66
2023-04-24T23:44:48.945Z,59.74
2023-04-24T23:47:15.824Z,59.76
2023-04-24T23:49:42.761Z,59.78
2023-04-24T23:52:09.784Z,59.64
2023-04-24T23:54:37.125Z,59.81
2023-04-24T23:57:04.663Z,59.85
2023-04-24T23:59:31.552Z,59.83
